Artie, West Virginia
Current Conditions -  °F | °C
As of 2:51 PM on Friday 31 Oct 2014 (Local Time) from KBKW Reporting Station
Overcast Overcast  
Wind Chill: 42°   Ceiling: 4000
Heat Index: 46°   Visibility: 10mi
Dew Point: 33°   Wind: 8mph
Humidity: 61%   Direction: 260°W
Pressure: 29.83"   Gusts: NA
Location:  37.93°N, 81.36°W
Report Text: KBKW 311851Z AUTO 26007KT 10SM OVC040 08/01 A2983 RMK AO2 SLP116 T00780006 TSNO
Loading
Personal Weather Stations






























Interactive Weather Map New forecast layout! Learn more

10-Day Weather Forecast

Advertisements
Track Severe Weather on mobile